createdAt,value
2017-09-06T00:02:08.758Z,4.30
2017-09-06T00:04:36.230Z,4.10
2017-09-06T00:07:03.686Z,5.30
2017-09-06T00:09:31.162Z,4.40
2017-09-06T00:11:58.682Z,4.17
2017-09-06T00:14:26.122Z,3.83
2017-09-06T00:16:53.580Z,5.30
2017-09-06T00:19:21.837Z,3.63
2017-09-06T00:21:49.314Z,4.43
2017-09-06T00:24:16.768Z,5.53
2017-09-06T00:26:44.266Z,4.00
2017-09-06T00:29:11.706Z,6.40
2017-09-06T00:31:39.151Z,6.60
2017-09-06T00:34:06.623Z,6.40
2017-09-06T00:36:34.077Z,3.60
2017-09-06T00:39:01.554Z,4.47
2017-09-06T00:41:28.994Z,4.03
2017-09-06T00:43:56.483Z,5.83
2017-09-06T00:46:23.932Z,4.53
2017-09-06T00:48:51.542Z,9.03
2017-09-06T00:51:19.001Z,3.43
2017-09-06T00:53:46.457Z,4.10
2017-09-06T00:56:13.906Z,4.30
2017-09-06T00:58:42.142Z,3.97
2017-09-06T01:01:09.623Z,4.10
2017-09-06T01:03:37.098Z,3.90
2017-09-06T01:06:04.576Z,4.03
2017-09-06T01:08:32.015Z,5.20
2017-09-06T01:10:59.466Z,8.73
2017-09-06T01:13:26.917Z,3.60
2017-09-06T01:15:55.138Z,4.00
2017-09-06T01:18:22.590Z,3.87
2017-09-06T01:20:50.069Z,4.17
2017-09-06T01:23:17.544Z,3.67
2017-09-06T01:25:44.999Z,3.73
2017-09-06T01:28:12.441Z,3.67
2017-09-06T01:30:39.899Z,4.87
2017-09-06T01:33:07.365Z,3.90
2017-09-06T01:35:34.816Z,5.50
2017-09-06T01:38:02.267Z,3.77
2017-09-06T01:40:29.721Z,5.57
2017-09-06T01:42:57.182Z,4.73
2017-09-06T01:45:24.635Z,3.70
2017-09-06T01:47:52.113Z,3.23
2017-09-06T01:50:19.562Z,4.20
2017-09-06T01:52:47.026Z,3.90
2017-09-06T01:55:14.475Z,3.80
2017-09-06T01:57:41.917Z,3.70
2017-09-06T02:00:09.381Z,4.30
2017-09-06T02:02:36.841Z,3.53
2017-09-06T02:05:04.282Z,3.43
2017-09-06T02:07:31.738Z,5.80
2017-09-06T02:09:59.205Z,3.50
2017-09-06T02:12:26.701Z,3.13
2017-09-06T02:14:54.137Z,3.00
2017-09-06T02:17:21.610Z,3.20
2017-09-06T02:19:49.063Z,3.33
2017-09-06T02:22:16.509Z,3.30
2017-09-06T02:24:43.977Z,5.20
2017-09-06T02:27:11.444Z,3.37
2017-09-06T02:29:38.934Z,3.30
2017-09-06T02:32:06.378Z,3.10
2017-09-06T02:34:34.614Z,3.90
2017-09-06T02:37:02.078Z,3.47
2017-09-06T02:39:29.553Z,3.03
2017-09-06T02:41:56.994Z,3.40
2017-09-06T02:44:24.461Z,3.20
2017-09-06T02:46:51.942Z,3.30
2017-09-06T02:49:20.165Z,3.23
2017-09-06T02:51:47.635Z,3.30
2017-09-06T02:54:15.081Z,3.37
2017-09-06T02:56:42.543Z,3.00
2017-09-06T02:59:10.014Z,2.50
2017-09-06T03:01:37.480Z,3.13
2017-09-06T03:04:04.925Z,3.23
2017-09-06T03:06:32.399Z,2.90
2017-09-06T03:08:59.833Z,3.03
2017-09-06T03:11:27.287Z,2.87
2017-09-06T03:13:54.733Z,3.20
2017-09-06T03:16:22.195Z,2.67
2017-09-06T03:18:49.645Z,2.80
2017-09-06T03:21:17.106Z,2.97
2017-09-06T03:23:44.569Z,2.60
2017-09-06T03:26:12.030Z,3.77
2017-09-06T03:28:39.521Z,3.03
2017-09-06T03:31:06.994Z,3.20
2017-09-06T03:33:34.471Z,2.80
2017-09-06T03:36:01.916Z,2.67
2017-09-06T03:38:29.373Z,3.00
2017-09-06T03:40:56.833Z,3.57
2017-09-06T03:43:24.296Z,2.37
2017-09-06T03:45:51.733Z,2.63
2017-09-06T03:48:19.209Z,2.73
2017-09-06T03:50:46.660Z,2.40
2017-09-06T03:53:14.133Z,2.83
2017-09-06T03:55:41.591Z,2.83
2017-09-06T03:58:09.068Z,4.40
2017-09-06T04:00:36.549Z,2.47
2017-09-06T04:03:04.006Z,4.83
2017-09-06T04:05:31.472Z,2.50
2017-09-06T04:07:58.944Z,2.60
2017-09-06T04:10:26.405Z,2.90
2017-09-06T04:12:53.874Z,2.67
2017-09-06T04:15:21.360Z,2.80
2017-09-06T04:17:48.843Z,3.10
2017-09-06T04:20:16.287Z,2.40
2017-09-06T04:22:43.757Z,4.77
2017-09-06T04:25:11.197Z,2.67
2017-09-06T04:27:38.655Z,2.73
2017-09-06T04:30:06.105Z,2.60
2017-09-06T04:32:33.554Z,2.90
2017-09-06T04:35:01.010Z,2.47
2017-09-06T04:37:28.466Z,2.70
2017-09-06T04:39:55.937Z,2.43
2017-09-06T04:42:23.405Z,2.60
2017-09-06T04:44:50.862Z,2.70
2017-09-06T04:47:18.301Z,2.53
2017-09-06T04:49:45.793Z,2.57
2017-09-06T04:52:13.238Z,2.70
2017-09-06T04:54:40.712Z,2.87
2017-09-06T04:57:08.198Z,2.50
2017-09-06T04:59:35.665Z,3.27
2017-09-06T05:02:03.113Z,2.50
2017-09-06T05:04:30.567Z,2.57
2017-09-06T05:06:58.029Z,2.47
2017-09-06T05:09:25.489Z,2.47
2017-09-06T05:11:52.968Z,2.97
2017-09-06T05:14:20.414Z,2.83
2017-09-06T05:16:47.874Z,2.67
2017-09-06T05:19:15.345Z,3.00
2017-09-06T05:21:42.814Z,2.40
2017-09-06T05:24:10.262Z,2.60
2017-09-06T05:26:37.730Z,3.00
2017-09-06T05:29:05.170Z,2.60
2017-09-06T05:31:32.629Z,2.30
2017-09-06T05:34:00.120Z,2.57
2017-09-06T05:36:27.575Z,3.10
2017-09-06T05:38:55.031Z,3.07
2017-09-06T05:41:22.477Z,2.70
2017-09-06T05:43:49.936Z,2.93
2017-09-06T05:46:17.401Z,3.20
2017-09-06T05:48:44.837Z,2.43
2017-09-06T05:51:12.304Z,2.90
2017-09-06T05:53:39.761Z,3.10
2017-09-06T05:56:07.211Z,2.53
2017-09-06T05:58:34.731Z,2.67
2017-09-06T06:01:02.184Z,2.63
2017-09-06T06:03:29.658Z,2.87
2017-09-06T06:05:57.103Z,2.73
2017-09-06T06:08:24.557Z,2.90
2017-09-06T06:10:52.026Z,2.67
2017-09-06T06:13:19.469Z,3.00
2017-09-06T06:15:46.904Z,2.77
2017-09-06T06:18:14.385Z,2.47
2017-09-06T06:20:41.825Z,3.00
2017-09-06T06:23:09.290Z,6.90
2017-09-06T06:25:36.758Z,2.70
2017-09-06T06:28:04.235Z,2.90
2017-09-06T06:30:31.669Z,2.60
2017-09-06T06:32:59.146Z,3.63
2017-09-06T06:35:26.601Z,2.60
2017-09-06T06:37:54.055Z,3.33
2017-09-06T06:40:21.510Z,2.83
2017-09-06T06:42:48.970Z,3.00
2017-09-06T06:45:16.453Z,2.60
2017-09-06T06:47:43.917Z,2.77
2017-09-06T06:50:11.374Z,2.80
2017-09-06T06:52:38.832Z,2.63
2017-09-06T06:55:06.282Z,4.20
2017-09-06T06:57:33.744Z,2.83
2017-09-06T07:00:01.194Z,2.40
2017-09-06T07:02:28.645Z,3.13
2017-09-06T07:04:56.101Z,3.20
2017-09-06T07:07:23.550Z,2.87
2017-09-06T07:09:51.014Z,2.80
2017-09-06T07:12:18.477Z,2.80
2017-09-06T07:14:45.944Z,2.60
2017-09-06T07:17:13.393Z,2.70
2017-09-06T07:19:40.840Z,2.97
2017-09-06T07:22:08.294Z,2.90
2017-09-06T07:24:35.736Z,2.97
2017-09-06T07:27:03.181Z,3.13
2017-09-06T07:29:30.625Z,3.03
2017-09-06T07:31:58.083Z,2.90
2017-09-06T07:34:25.531Z,2.60
2017-09-06T07:36:52.986Z,2.50
2017-09-06T07:39:20.451Z,2.77
2017-09-06T07:41:47.918Z,2.73
2017-09-06T07:44:15.373Z,2.80
2017-09-06T07:46:42.865Z,3.13
2017-09-06T07:49:10.309Z,2.80
2017-09-06T07:51:37.763Z,2.77
2017-09-06T07:54:05.246Z,2.97
2017-09-06T07:56:32.703Z,2.93
2017-09-06T07:59:00.159Z,2.87
2017-09-06T08:01:27.621Z,2.90
2017-09-06T08:03:55.082Z,2.70
2017-09-06T08:06:22.533Z,2.83
2017-09-06T08:08:49.994Z,2.57
2017-09-06T08:11:17.460Z,2.77
2017-09-06T08:13:45.008Z,2.60
2017-09-06T08:16:12.575Z,2.77
2017-09-06T08:18:40.048Z,2.97
2017-09-06T08:21:07.496Z,2.90
2017-09-06T08:23:34.967Z,2.33
2017-09-06T08:26:02.411Z,3.63
2017-09-06T08:28:29.861Z,2.70
2017-09-06T08:30:57.350Z,2.17
2017-09-06T08:33:24.800Z,2.60
2017-09-06T08:35:52.251Z,2.53
2017-09-06T08:38:19.717Z,3.00
2017-09-06T08:40:47.174Z,2.77
2017-09-06T08:43:14.624Z,3.13
2017-09-06T08:45:42.097Z,2.70
2017-09-06T08:48:09.546Z,2.57
2017-09-06T08:50:37.019Z,3.00
2017-09-06T08:53:04.466Z,3.13
2017-09-06T08:55:31.934Z,3.10
2017-09-06T08:57:59.386Z,2.77
2017-09-06T09:00:26.841Z,3.10
2017-09-06T09:02:54.302Z,3.00
2017-09-06T09:05:21.770Z,2.70
2017-09-06T09:07:49.226Z,2.57
2017-09-06T09:10:16.680Z,2.37
2017-09-06T09:12:44.161Z,2.70
2017-09-06T09:15:11.639Z,2.67
2017-09-06T09:17:39.110Z,2.70
2017-09-06T09:20:06.562Z,6.30
2017-09-06T09:22:34.039Z,2.73
2017-09-06T09:25:01.498Z,2.60
2017-09-06T09:27:28.965Z,2.40
2017-09-06T09:29:56.426Z,2.63
2017-09-06T09:32:23.882Z,3.07
2017-09-06T09:34:51.373Z,2.73
2017-09-06T09:37:18.842Z,2.93
2017-09-06T09:39:46.306Z,2.30
2017-09-06T09:42:13.791Z,2.80
2017-09-06T09:44:41.245Z,2.57
2017-09-06T09:47:08.705Z,2.77
2017-09-06T09:49:36.218Z,2.57
2017-09-06T09:52:03.670Z,2.27
2017-09-06T09:54:31.136Z,2.63
2017-09-06T09:56:58.620Z,2.47
2017-09-06T09:59:26.074Z,2.63
2017-09-06T10:01:53.528Z,2.43
2017-09-06T10:04:20.988Z,2.23
2017-09-06T10:06:48.433Z,2.30
2017-09-06T10:09:15.902Z,2.53
2017-09-06T10:11:43.350Z,3.73
2017-09-06T10:14:10.824Z,3.10
2017-09-06T10:16:38.263Z,2.40
2017-09-06T10:19:05.746Z,2.67
2017-09-06T10:21:33.200Z,2.13
2017-09-06T10:24:00.651Z,2.70
2017-09-06T10:26:28.098Z,2.40
2017-09-06T10:28:55.570Z,2.10
2017-09-06T10:31:23.019Z,2.90
2017-09-06T10:33:50.478Z,2.30
2017-09-06T10:36:17.934Z,3.97
2017-09-06T10:38:45.398Z,3.13
2017-09-06T10:41:12.858Z,2.40
2017-09-06T10:43:40.357Z,2.20
2017-09-06T10:46:07.817Z,1.90
2017-09-06T10:48:35.286Z,3.60
2017-09-06T10:51:02.784Z,2.53
2017-09-06T10:53:30.245Z,7.33
2017-09-06T10:55:57.705Z,3.13
2017-09-06T10:58:25.166Z,2.30
2017-09-06T11:00:52.641Z,2.00
2017-09-06T11:03:20.123Z,2.57
2017-09-06T11:05:47.598Z,2.97
2017-09-06T11:08:15.048Z,2.03
2017-09-06T11:10:42.508Z,3.67
2017-09-06T11:13:09.947Z,1.87
2017-09-06T11:15:40.935Z,1.97
2017-09-06T11:18:08.372Z,2.13
2017-09-06T11:20:35.822Z,4.03
2017-09-06T11:23:03.278Z,2.00
2017-09-06T11:25:30.729Z,2.10
2017-09-06T11:27:58.190Z,3.13
2017-09-06T11:30:25.664Z,1.80
2017-09-06T11:32:53.101Z,4.90
2017-09-06T11:35:20.558Z,2.03
2017-09-06T11:37:48.003Z,2.10
2017-09-06T11:40:15.464Z,2.10
2017-09-06T11:42:42.921Z,1.70
2017-09-06T11:45:10.390Z,2.87
2017-09-06T11:47:37.861Z,4.73
2017-09-06T11:50:05.372Z,1.80
2017-09-06T11:52:32.856Z,6.97
2017-09-06T11:55:00.349Z,6.33
2017-09-06T11:57:27.827Z,1.83
2017-09-06T11:59:55.273Z,2.90
2017-09-06T12:02:22.769Z,4.50
2017-09-06T12:04:50.226Z,2.63
2017-09-06T12:07:17.693Z,1.80
2017-09-06T12:09:45.137Z,4.13
2017-09-06T12:12:12.609Z,4.30
2017-09-06T12:14:40.088Z,2.50
2017-09-06T12:17:07.579Z,16.23
2017-09-06T12:19:35.036Z,4.27
2017-09-06T12:22:02.486Z,3.20
2017-09-06T12:24:29.955Z,4.70
2017-09-06T12:26:57.420Z,2.57
2017-09-06T12:29:24.887Z,2.50
2017-09-06T12:31:52.362Z,1.60
2017-09-06T12:34:19.821Z,5.57
2017-09-06T12:36:47.297Z,2.97
2017-09-06T12:39:14.741Z,5.73
2017-09-06T12:41:42.205Z,2.40
2017-09-06T12:44:09.684Z,1.90
2017-09-06T12:46:37.126Z,4.33
2017-09-06T12:49:04.578Z,2.20
2017-09-06T12:51:32.045Z,1.40
2017-09-06T12:53:59.495Z,7.40
2017-09-06T12:56:26.946Z,10.53
2017-09-06T12:58:54.403Z,2.77
2017-09-06T13:01:21.874Z,1.63
2017-09-06T13:03:49.370Z,8.53
2017-09-06T13:06:16.851Z,7.07
2017-09-06T13:08:44.309Z,7.47
2017-09-06T13:11:11.756Z,4.27
2017-09-06T13:13:39.222Z,4.13
2017-09-06T13:16:06.702Z,7.77
2017-09-06T13:18:34.175Z,7.13
2017-09-06T13:21:01.629Z,3.43
2017-09-06T13:23:29.075Z,1.10
2017-09-06T13:25:56.645Z,2.80
2017-09-06T13:28:24.093Z,3.70
2017-09-06T13:30:51.557Z,1.30
2017-09-06T13:33:18.998Z,1.90
2017-09-06T13:35:46.448Z,2.97
2017-09-06T13:38:13.926Z,1.80
2017-09-06T13:40:41.376Z,1.10
2017-09-06T13:43:08.830Z,1.70
2017-09-06T13:45:36.288Z,1.53
2017-09-06T13:48:03.746Z,9.20
2017-09-06T13:50:31.237Z,3.43
2017-09-06T13:52:58.661Z,3.23
2017-09-06T13:55:26.114Z,18.83
2017-09-06T13:57:53.569Z,9.67
2017-09-06T14:00:21.010Z,5.33
2017-09-06T14:02:48.474Z,11.90
2017-09-06T14:05:15.965Z,3.33
2017-09-06T14:07:43.433Z,8.77
2017-09-06T14:10:10.869Z,2.67
2017-09-06T14:12:38.333Z,5.40
2017-09-06T14:15:05.782Z,5.60
2017-09-06T14:17:33.254Z,4.73
2017-09-06T14:20:00.752Z,4.07
2017-09-06T14:22:28.329Z,4.17
2017-09-06T14:24:55.778Z,2.73
2017-09-06T14:27:23.229Z,5.00
2017-09-06T14:29:50.680Z,1.93
2017-09-06T14:32:18.285Z,2.67
2017-09-06T14:34:45.730Z,2.13
2017-09-06T14:37:13.293Z,2.00
2017-09-06T14:39:40.735Z,2.17
2017-09-06T14:42:08.195Z,5.37
2017-09-06T14:44:35.654Z,9.00
2017-09-06T14:47:03.125Z,4.57
2017-09-06T14:49:30.587Z,1.50
2017-09-06T14:51:58.067Z,1.33
2017-09-06T14:54:25.519Z,1.67
2017-09-06T14:56:52.980Z,3.60
2017-09-06T14:59:20.438Z,2.43
2017-09-06T15:01:47.910Z,7.47
2017-09-06T15:04:15.361Z,1.50
2017-09-06T15:06:42.810Z,3.03
2017-09-06T15:09:10.270Z,1.90
2017-09-06T15:11:37.711Z,3.97
2017-09-06T15:14:05.186Z,1.80
2017-09-06T15:16:32.637Z,1.50
2017-09-06T15:19:00.107Z,1.10
2017-09-06T15:21:27.550Z,2.20
2017-09-06T15:23:55.005Z,1.27
2017-09-06T15:26:22.657Z,2.77
2017-09-06T15:28:50.115Z,2.03
2017-09-06T15:31:17.562Z,6.10
2017-09-06T15:33:45.714Z,3.00
2017-09-06T15:36:13.162Z,1.70
2017-09-06T15:38:40.629Z,1.40
2017-09-06T15:41:08.072Z,2.17
2017-09-06T15:43:35.527Z,1.67
2017-09-06T15:46:02.997Z,1.90
2017-09-06T15:48:30.445Z,1.50
2017-09-06T15:50:57.894Z,3.30
2017-09-06T15:53:25.342Z,3.07
2017-09-06T15:55:52.813Z,1.97
2017-09-06T15:58:20.321Z,2.60
2017-09-06T16:00:47.767Z,2.90
2017-09-06T16:03:15.218Z,2.30
2017-09-06T16:05:42.686Z,3.70
2017-09-06T16:08:10.131Z,4.27
2017-09-06T16:10:37.592Z,3.90
2017-09-06T16:13:05.049Z,3.10
2017-09-06T16:15:32.493Z,3.10
2017-09-06T16:17:59.950Z,3.33
2017-09-06T16:20:27.399Z,3.90
2017-09-06T16:22:54.854Z,2.93
2017-09-06T16:25:22.299Z,3.30
2017-09-06T16:27:49.761Z,3.77
2017-09-06T16:30:17.211Z,3.30
2017-09-06T16:32:44.689Z,4.00
2017-09-06T16:35:12.428Z,3.47
2017-09-06T16:37:39.905Z,3.20
2017-09-06T16:40:07.352Z,2.40
2017-09-06T16:42:34.909Z,2.97
2017-09-06T16:45:02.374Z,2.30
2017-09-06T16:47:29.831Z,2.07
2017-09-06T16:49:57.283Z,2.27
2017-09-06T16:52:24.737Z,2.33
2017-09-06T16:54:52.200Z,2.33
2017-09-06T16:57:19.669Z,2.50
2017-09-06T16:59:47.129Z,2.27
2017-09-06T17:02:14.598Z,3.67
2017-09-06T17:04:42.064Z,2.13
2017-09-06T17:07:09.514Z,6.23
2017-09-06T17:09:41.921Z,3.37
2017-09-06T17:12:09.361Z,2.50
2017-09-06T17:14:36.819Z,3.33
2017-09-06T17:17:04.459Z,3.20
2017-09-06T17:19:31.909Z,4.83
2017-09-06T17:21:59.359Z,8.10
2017-09-06T17:24:26.840Z,5.67
2017-09-06T17:26:54.290Z,7.50
2017-09-06T17:29:21.743Z,6.13
2017-09-06T17:31:49.227Z,10.73
2017-09-06T17:34:16.686Z,8.70
2017-09-06T17:36:44.152Z,8.30
2017-09-06T17:39:11.605Z,6.40
2017-09-06T17:41:39.058Z,8.43
2017-09-06T17:44:06.519Z,6.23
2017-09-06T17:46:34.021Z,12.00
2017-09-06T17:49:01.464Z,13.97
2017-09-06T17:51:28.920Z,15.50
2017-09-06T17:53:56.393Z,8.47
2017-09-06T17:56:23.870Z,7.93
2017-09-06T17:58:51.323Z,6.30
2017-09-06T18:01:18.778Z,5.00
2017-09-06T18:03:46.223Z,4.43
2017-09-06T18:06:13.670Z,9.97
2017-09-06T18:08:41.118Z,3.70
2017-09-06T18:11:08.593Z,10.53
2017-09-06T18:13:36.051Z,8.57
2017-09-06T18:16:03.514Z,6.77
2017-09-06T18:18:30.961Z,5.87
2017-09-06T18:20:58.421Z,15.87
2017-09-06T18:23:26.033Z,10.73
2017-09-06T18:25:53.478Z,13.30
2017-09-06T18:28:20.933Z,10.20
2017-09-06T18:30:48.405Z,12.27
2017-09-06T18:33:15.882Z,7.30
2017-09-06T18:35:43.326Z,8.43
2017-09-06T18:38:10.801Z,12.37
2017-09-06T18:40:38.247Z,6.50
2017-09-06T18:43:05.706Z,7.70
2017-09-06T18:45:33.159Z,7.33
2017-09-06T18:48:00.619Z,9.60
2017-09-06T18:50:28.071Z,12.27
2017-09-06T18:52:55.531Z,9.70
2017-09-06T18:55:22.977Z,6.80
2017-09-06T18:57:50.430Z,11.27
2017-09-06T19:00:17.897Z,11.67
2017-09-06T19:02:45.373Z,9.10
2017-09-06T19:05:12.824Z,8.80
2017-09-06T19:07:40.278Z,8.30
2017-09-06T19:10:07.725Z,14.97
2017-09-06T19:12:35.170Z,8.90
2017-09-06T19:15:02.731Z,8.50
2017-09-06T19:17:30.184Z,8.60
2017-09-06T19:19:57.647Z,6.30
2017-09-06T19:22:25.098Z,11.57
2017-09-06T19:24:52.559Z,8.50
2017-09-06T19:27:20.002Z,8.37
2017-09-06T19:29:47.455Z,7.80
2017-09-06T19:32:14.902Z,11.03
2017-09-06T19:34:42.351Z,7.93
2017-09-06T19:37:09.808Z,11.40
2017-09-06T19:39:37.289Z,13.43
2017-09-06T19:42:04.730Z,13.27
2017-09-06T19:44:32.205Z,10.83
2017-09-06T19:46:59.649Z,13.40
2017-09-06T19:49:27.090Z,8.37
2017-09-06T19:51:54.545Z,10.10
2017-09-06T19:54:22.061Z,11.17
2017-09-06T19:56:49.516Z,15.63
2017-09-06T19:59:16.957Z,20.30
2017-09-06T20:01:44.433Z,14.80
2017-09-06T20:04:11.896Z,12.30
2017-09-06T20:06:39.351Z,11.60
2017-09-06T20:09:06.798Z,13.80
2017-09-06T20:11:34.261Z,16.70
2017-09-06T20:14:01.710Z,15.47
2017-09-06T20:16:29.162Z,11.30
2017-09-06T20:18:56.622Z,16.60
2017-09-06T20:21:24.074Z,17.70
2017-09-06T20:23:51.535Z,14.20
2017-09-06T20:26:18.989Z,8.60
2017-09-06T20:28:46.450Z,11.30
2017-09-06T20:31:13.889Z,8.57
2017-09-06T20:33:41.342Z,10.63
2017-09-06T20:36:08.957Z,9.80
2017-09-06T20:38:36.425Z,16.17
2017-09-06T20:41:03.900Z,22.27
2017-09-06T20:43:31.354Z,14.30
2017-09-06T20:45:58.829Z,4.93
2017-09-06T20:48:26.292Z,8.73
2017-09-06T20:50:53.749Z,6.97
2017-09-06T20:53:21.207Z,12.50
2017-09-06T20:55:48.667Z,10.67
2017-09-06T20:58:16.122Z,10.77
2017-09-06T21:00:43.605Z,8.87
2017-09-06T21:03:11.075Z,7.03
2017-09-06T21:05:38.556Z,14.30
2017-09-06T21:08:05.997Z,12.87
2017-09-06T21:10:33.455Z,20.70
2017-09-06T21:13:00.909Z,17.53
2017-09-06T21:15:28.373Z,13.60
2017-09-06T21:17:55.826Z,11.43
2017-09-06T21:20:23.297Z,12.83
2017-09-06T21:22:50.757Z,8.20
2017-09-06T21:25:18.234Z,13.40
2017-09-06T21:27:45.691Z,7.17
2017-09-06T21:30:13.150Z,18.63
2017-09-06T21:32:40.613Z,8.63
2017-09-06T21:35:08.062Z,6.33
2017-09-06T21:37:35.606Z,9.70
2017-09-06T21:40:03.108Z,12.73
2017-09-06T21:42:30.569Z,4.37
2017-09-06T21:44:58.019Z,11.63
2017-09-06T21:47:25.470Z,9.60
2017-09-06T21:49:53.007Z,8.53
2017-09-06T21:52:20.471Z,10.20
2017-09-06T21:54:47.914Z,4.70
2017-09-06T21:57:15.409Z,6.57
2017-09-06T21:59:42.853Z,7.97
2017-09-06T22:02:10.308Z,10.27
2017-09-06T22:04:37.770Z,5.03
2017-09-06T22:07:05.226Z,5.30
2017-09-06T22:09:32.665Z,4.57
2017-09-06T22:12:00.126Z,8.30
2017-09-06T22:14:27.653Z,13.77
2017-09-06T22:16:55.097Z,4.33
2017-09-06T22:19:22.590Z,3.73
2017-09-06T22:21:50.057Z,5.17
2017-09-06T22:24:17.503Z,5.30
2017-09-06T22:26:44.960Z,5.93
2017-09-06T22:29:12.429Z,8.03
2017-09-06T22:31:39.884Z,5.30
2017-09-06T22:34:07.338Z,6.30
2017-09-06T22:36:34.943Z,4.27
2017-09-06T22:39:02.402Z,7.80
2017-09-06T22:41:29.847Z,6.67
2017-09-06T22:43:57.298Z,8.53
2017-09-06T22:46:24.765Z,6.47
2017-09-06T22:48:52.234Z,4.30
2017-09-06T22:51:19.683Z,6.20
2017-09-06T22:53:47.133Z,2.27
2017-09-06T22:56:14.597Z,12.70
2017-09-06T22:58:42.047Z,3.97
2017-09-06T23:01:09.509Z,2.73
2017-09-06T23:03:36.959Z,8.33
2017-09-06T23:06:04.403Z,8.13
2017-09-06T23:08:31.873Z,6.80
2017-09-06T23:10:59.318Z,8.43
2017-09-06T23:13:26.795Z,8.37
2017-09-06T23:15:54.234Z,4.13
2017-09-06T23:18:21.686Z,7.60
2017-09-06T23:20:49.168Z,5.43
2017-09-06T23:23:16.633Z,3.53
2017-09-06T23:25:44.092Z,3.40
2017-09-06T23:28:11.530Z,5.60
2017-09-06T23:30:38.983Z,3.00
2017-09-06T23:33:06.445Z,4.07
2017-09-06T23:35:33.898Z,5.03
2017-09-06T23:38:01.348Z,6.37
2017-09-06T23:40:28.789Z,23.37
2017-09-06T23:42:56.239Z,7.70
2017-09-06T23:45:23.697Z,5.87
2017-09-06T23:47:51.133Z,6.83
2017-09-06T23:50:18.600Z,2.30
2017-09-06T23:52:46.086Z,6.93
2017-09-06T23:55:13.503Z,7.43
2017-09-06T23:57:40.969Z,5.27
